Time;durP1;ratioP1;P1;durP2;ratioP2;P2;SDS_P1;SDS_P2;PMS_P1;PMS_P2;Temp;Humidity;BMP_temperature;BMP_pressure;BME280_temperature;BME280_humidity;BME280_pressure;Samples;Min_cycle;Max_cycle;Signal;HPM_P1;HPM_P2
2023/01/08 00:00:52;;;;;;;24.80;14.90;;;0.80;99.90;;;;;;5006454;28;20037;-83
2023/01/08 00:03:17;;;;;;;21.00;11.00;;;0.90;99.90;;;;;;5006858;28;20041;-83
2023/01/08 00:05:43;;;;;;;15.57;7.70;;;0.90;99.90;;;;;;5006471;28;20032;-83
2023/01/08 00:08:09;;;;;;;10.90;7.17;;;1.00;99.90;;;;;;5006862;28;20052;-83
2023/01/08 00:10:36;;;;;;;8.03;5.73;;;1.00;99.90;;;;;;5006254;28;20034;-83
2023/01/08 00:13:03;;;;;;;17.20;10.57;;;1.00;99.90;;;;;;4987548;28;20014;-83
2023/01/08 00:15:29;;;;;;;18.43;10.20;;;1.00;99.90;;;;;;5006605;28;20133;-83
2023/01/08 00:17:55;;;;;;;18.50;10.37;;;1.00;99.90;;;;;;4988037;28;20113;-83
2023/01/08 00:20:21;;;;;;;19.57;11.40;;;1.10;99.90;;;;;;4990123;28;20962;-83
2023/01/08 00:22:50;;;;;;;16.30;9.87;;;1.10;99.90;;;;;;5005618;28;20024;-83
2023/01/08 00:25:16;;;;;;;14.93;9.23;;;1.10;99.90;;;;;;4986944;28;20029;-83
2023/01/08 00:27:42;;;;;;;15.17;9.00;;;1.00;99.90;;;;;;5006298;28;20148;-83
2023/01/08 00:30:08;;;;;;;11.73;7.30;;;1.00;99.90;;;;;;4987496;28;20117;-83
2023/01/08 00:32:34;;;;;;;16.33;8.30;;;1.00;99.90;;;;;;5006489;28;20010;-83
2023/01/08 00:35:00;;;;;;;11.67;7.47;;;1.00;99.90;;;;;;5006489;28;20053;-83
2023/01/08 00:37:27;;;;;;;10.47;6.13;;;1.00;99.90;;;;;;4987113;28;20064;-83
2023/01/08 00:39:52;;;;;;;10.33;6.23;;;1.00;99.90;;;;;;5006717;28;20065;-83
2023/01/08 00:42:18;;;;;;;10.67;6.77;;;1.00;99.90;;;;;;5006594;28;20152;-83
2023/01/08 00:44:43;;;;;;;7.63;5.17;;;1.00;99.90;;;;;;5004490;28;20029;-83
2023/01/08 00:47:09;;;;;;;9.60;5.73;;;0.90;99.90;;;;;;4983447;28;20022;-83
2023/01/08 00:49:34;;;;;;;8.20;5.27;;;0.90;99.90;;;;;;4998335;28;20038;-82
2023/01/08 00:52:00;;;;;;;11.83;4.63;;;0.90;99.90;;;;;;4997169;28;20033;-83
2023/01/08 00:54:25;;;;;;;8.37;4.87;;;0.90;99.90;;;;;;4998703;28;20026;-83
2023/01/08 00:56:53;;;;;;;8.87;5.53;;;0.80;99.90;;;;;;5001077;28;20459;-83
2023/01/08 00:59:18;;;;;;;9.93;5.43;;;0.80;99.90;;;;;;5001095;28;21182;-83
2023/01/08 01:01:46;;;;;;;6.80;4.90;;;0.70;99.90;;;;;;5001118;28;20036;-83
2023/01/08 01:04:13;;;;;;;8.97;5.97;;;0.70;99.90;;;;;;5002969;28;20017;-83
2023/01/08 01:06:39;;;;;;;9.03;6.10;;;0.70;99.90;;;;;;5004117;28;20108;-83
2023/01/08 01:09:05;;;;;;;7.90;5.47;;;0.70;99.90;;;;;;5004026;28;20545;-83
2023/01/08 01:11:31;;;;;;;7.53;5.23;;;0.60;99.90;;;;;;5004996;28;20044;-83
2023/01/08 01:13:56;;;;;;;8.23;5.80;;;0.60;99.90;;;;;;4990096;28;20104;-83
2023/01/08 01:16:23;;;;;;;10.20;5.77;;;0.60;99.90;;;;;;4991466;28;20018;-83
2023/01/08 01:18:50;;;;;;;10.67;6.73;;;0.60;99.90;;;;;;5008339;28;20034;-83
2023/01/08 01:21:29;;;;;;;13.47;6.70;;;0.70;99.90;;;;;;5009268;28;20144;-83
2023/01/08 01:23:58;;;;;;;10.07;6.20;;;0.70;99.90;;;;;;5009932;28;20026;-83
2023/01/08 01:26:24;;;;;;;9.80;6.47;;;0.70;99.90;;;;;;4991260;28;20069;-83
2023/01/08 01:28:52;;;;;;;10.33;6.63;;;0.70;99.90;;;;;;5009575;28;20025;-83
2023/01/08 01:31:19;;;;;;;11.60;6.57;;;0.70;99.90;;;;;;4992257;28;20050;-83
2023/01/08 01:33:45;;;;;;;11.57;5.93;;;0.70;99.90;;;;;;4991398;28;20014;-83
2023/01/08 01:36:12;;;;;;;10.43;6.10;;;0.70;99.90;;;;;;5008598;28;20029;-83
2023/01/08 01:38:41;;;;;;;11.43;6.83;;;0.70;99.90;;;;;;4989643;28;20033;-83
2023/01/08 01:41:06;;;;;;;10.37;6.23;;;0.70;99.90;;;;;;5009681;28;20057;-83
2023/01/08 01:43:40;;;;;;;10.17;6.67;;;0.80;99.90;;;;;;5011224;28;20025;-83
2023/01/08 01:46:18;;;;;;;10.10;5.83;;;0.80;99.90;;;;;;5012269;28;20026;-83
2023/01/08 01:48:45;;;;;;;10.67;6.27;;;0.80;99.90;;;;;;4993845;28;20157;-83
2023/01/08 01:51:10;;;;;;;9.13;5.80;;;0.80;99.90;;;;;;4993659;28;20387;-83
2023/01/08 01:53:36;;;;;;;9.90;6.37;;;0.80;99.90;;;;;;5012175;28;20018;-83
2023/01/08 01:56:03;;;;;;;9.80;6.50;;;0.80;99.90;;;;;;5012726;28;20030;-83
2023/01/08 01:58:30;;;;;;;9.70;6.20;;;0.80;99.90;;;;;;5012239;28;20104;-83
2023/01/08 02:00:59;;;;;;;11.83;7.47;;;0.80;99.90;;;;;;5011400;28;20028;-83
2023/01/08 02:03:31;;;;;;;13.00;6.77;;;0.80;99.90;;;;;;4992181;28;20026;-83
2023/01/08 02:06:12;;;;;;;9.80;5.93;;;0.80;99.90;;;;;;4992447;28;20029;-83
2023/01/08 02:09:03;;;;;;;11.47;6.10;;;0.70;99.90;;;;;;5010162;28;20022;-83
2023/01/08 02:14:52;;;;;;;9.23;6.20;;;0.70;99.90;;;;;;5010942;28;20045;-83
2023/01/08 02:17:57;;;;;;;8.90;5.67;;;0.60;99.90;;;;;;5012292;28;20022;-83
2023/01/08 02:20:25;;;;;;;9.60;6.00;;;0.60;99.90;;;;;;5011213;28;20379;-83
2023/01/08 02:23:03;;;;;;;8.63;5.77;;;0.60;99.90;;;;;;5010215;28;20060;-83
2023/01/08 02:26:09;;;;;;;9.80;5.83;;;0.60;99.90;;;;;;5010981;28;20018;-83
2023/01/08 02:28:46;;;;;;;10.27;5.25;;;0.50;99.90;;;;;;4990845;28;20595;-83
2023/01/08 02:31:13;;;;;;;7.30;4.77;;;0.50;99.90;;;;;;5010991;28;20052;-83
2023/01/08 02:33:39;;;;;;;10.33;5.53;;;0.50;99.90;;;;;;5011398;28;20030;-83
2023/01/08 02:36:20;;;;;;;6.97;4.87;;;0.40;99.90;;;;;;4993039;28;20026;-83
2023/01/08 02:38:59;;;;;;;7.57;5.10;;;0.40;99.90;;;;;;5011260;28;20038;-83
2023/01/08 02:41:37;;;;;;;7.43;5.37;;;0.40;99.90;;;;;;5011183;28;20028;-83
2023/01/08 02:44:07;;;;;;;6.70;4.67;;;0.40;99.90;;;;;;4993758;28;20028;-83
2023/01/08 02:46:34;;;;;;;8.43;4.93;;;0.40;99.90;;;;;;4992369;28;20098;-83
2023/01/08 02:49:05;;;;;;;9.03;5.00;;;0.30;99.90;;;;;;5010262;28;20115;-83
2023/01/08 02:51:36;;;;;;;7.97;5.10;;;0.30;99.90;;;;;;4992179;28;20029;-83
2023/01/08 02:54:06;;;;;;;7.50;5.03;;;0.30;99.90;;;;;;4993231;28;20030;-83
2023/01/08 02:56:35;;;;;;;8.23;5.17;;;0.30;99.90;;;;;;5010608;28;20029;-83
2023/01/08 02:59:04;;;;;;;6.60;4.57;;;0.30;99.90;;;;;;4993083;28;20030;-83
2023/01/08 03:01:32;;;;;;;7.10;4.60;;;0.30;99.90;;;;;;5011379;28;20030;-83
2023/01/08 03:04:02;;;;;;;7.73;4.70;;;0.30;99.90;;;;;;5010901;28;20153;-83
2023/01/08 03:06:29;;;;;;;8.37;4.70;;;0.20;99.90;;;;;;5010636;28;20080;-83
2023/01/08 03:08:55;;;;;;;7.83;4.80;;;0.20;99.90;;;;;;5010712;28;20052;-84
2023/01/08 03:11:22;;;;;;;6.03;4.30;;;0.20;99.90;;;;;;5010468;28;20526;-83
2023/01/08 03:14:08;;;;;;;7.30;4.63;;;0.20;99.90;;;;;;5011643;28;20487;-83
2023/01/08 03:16:37;;;;;;;6.00;4.20;;;0.20;99.90;;;;;;4993139;28;20129;-83
2023/01/08 03:19:41;;;;;;;6.40;3.80;;;0.20;99.90;;;;;;5011282;28;20064;-83
2023/01/08 03:22:10;;;;;;;6.87;4.17;;;0.20;99.90;;;;;;4991028;28;20096;-82
2023/01/08 03:24:38;;;;;;;7.83;4.20;;;0.20;99.90;;;;;;5007305;28;20030;-82
2023/01/08 03:27:07;;;;;;;7.47;4.50;;;0.20;99.90;;;;;;4988133;28;20033;-82
2023/01/08 03:29:36;;;;;;;8.83;4.60;;;0.10;99.90;;;;;;5007058;28;20069;-83
2023/01/08 03:32:06;;;;;;;6.97;4.57;;;0.10;99.90;;;;;;5008362;28;20038;-82
2023/01/08 03:34:35;;;;;;;7.63;4.73;;;0.10;99.90;;;;;;4988783;28;20064;-83
2023/01/08 03:37:03;;;;;;;9.13;4.30;;;0.00;99.90;;;;;;5010049;28;20022;-82
2023/01/08 03:39:36;;;;;;;11.10;5.53;;;0.00;99.90;;;;;;4991596;28;20061;-83
2023/01/08 03:42:08;;;;;;;6.77;3.70;;;0.10;99.90;;;;;;5010474;28;21452;-84
2023/01/08 03:44:34;;;;;;;6.60;4.13;;;0.00;99.90;;;;;;5009248;28;20044;-83
2023/01/08 03:47:01;;;;;;;5.73;3.77;;;0.00;99.90;;;;;;5009995;28;20029;-83
2023/01/08 03:49:28;;;;;;;5.50;3.87;;;0.00;99.90;;;;;;5009651;28;20479;-83
2023/01/08 03:51:54;;;;;;;5.00;3.57;;;0.00;99.90;;;;;;5008896;28;20030;-83
2023/01/08 03:54:24;;;;;;;6.13;3.67;;;0.00;99.90;;;;;;5009753;28;20071;-83
2023/01/08 03:56:49;;;;;;;6.00;4.17;;;-0.10;99.90;;;;;;5010557;28;20052;-83
2023/01/08 03:59:16;;;;;;;7.07;3.90;;;0.00;99.90;;;;;;5010318;28;20761;-83
2023/01/08 04:01:41;;;;;;;6.57;4.27;;;-0.10;99.90;;;;;;5008931;28;20899;-83
2023/01/08 04:04:09;;;;;;;6.30;4.20;;;-0.10;99.90;;;;;;5009299;28;20030;-83
2023/01/08 04:06:34;;;;;;;6.70;3.67;;;-0.10;99.90;;;;;;5010569;28;20163;-83
2023/01/08 04:09:00;;;;;;;5.30;3.50;;;-0.10;99.90;;;;;;5010577;28;20137;-83
2023/01/08 04:11:25;;;;;;;4.37;3.40;;;-0.10;99.90;;;;;;5009564;28;20026;-83
2023/01/08 04:13:51;;;;;;;5.93;4.20;;;-0.20;99.90;;;;;;5016267;28;20575;-88
2023/01/08 04:16:16;;;;;;;6.73;3.93;;;-0.20;99.90;;;;;;5023429;28;20026;-87
2023/01/08 04:18:42;;;;;;;7.37;3.77;;;-0.20;99.90;;;;;;5026852;28;20097;-88
2023/01/08 04:21:07;;;;;;;5.47;3.53;;;-0.20;99.90;;;;;;5032663;28;20063;-88
2023/01/08 04:23:33;;;;;;;7.57;4.27;;;-0.20;99.90;;;;;;5030325;28;20029;-88
2023/01/08 04:25:58;;;;;;;5.97;3.80;;;-0.20;99.90;;;;;;5032394;28;20030;-88
2023/01/08 04:28:24;;;;;;;7.17;3.93;;;-0.20;99.90;;;;;;5031270;28;20060;-88
2023/01/08 04:30:50;;;;;;;6.27;3.90;;;-0.20;99.90;;;;;;5033168;28;20090;-88
2023/01/08 04:33:15;;;;;;;7.57;4.63;;;-0.20;99.90;;;;;;5031993;28;20052;-88
2023/01/08 04:35:41;;;;;;;5.50;3.60;;;-0.20;99.90;;;;;;5013048;28;20032;-88
2023/01/08 04:38:07;;;;;;;5.47;3.50;;;-0.10;99.90;;;;;;5033667;28;20061;-87
2023/01/08 04:40:33;;;;;;;7.07;4.43;;;-0.10;99.90;;;;;;5031514;28;20018;-88
2023/01/08 04:42:59;;;;;;;6.63;3.83;;;-0.10;99.90;;;;;;5025603;28;20022;-88
2023/01/08 04:45:24;;;;;;;5.70;3.40;;;-0.10;99.90;;;;;;5031222;28;20090;-88
2023/01/08 04:47:57;;;;;;;5.07;3.20;;;-0.10;99.90;;;;;;5032840;28;20034;-87
2023/01/08 04:50:23;;;;;;;6.83;4.10;;;-0.10;99.90;;;;;;5031160;28;20049;-88
2023/01/08 04:52:48;;;;;;;6.60;3.90;;;-0.10;99.90;;;;;;5031899;28;20029;-88
2023/01/08 04:55:14;;;;;;;4.90;3.47;;;-0.10;99.90;;;;;;5014780;28;20036;-88
2023/01/08 04:57:39;;;;;;;5.00;3.40;;;-0.10;99.90;;;;;;5033132;28;20050;-89
2023/01/08 05:00:09;;;;;;;4.80;3.40;;;-0.10;99.90;;;;;;5007539;28;20360;-89
2023/01/08 05:02:34;;;;;;;4.70;3.27;;;-0.10;99.90;;;;;;5016941;28;20022;-88
2023/01/08 05:05:00;;;;;;;4.93;3.13;;;-0.10;99.90;;;;;;5016396;28;20037;-85
2023/01/08 05:07:25;;;;;;;6.20;3.60;;;-0.10;99.90;;;;;;4999216;28;20382;-85
2023/01/08 05:09:51;;;;;;;9.50;3.20;;;-0.10;99.90;;;;;;5016091;28;20041;-85
2023/01/08 05:12:17;;;;;;;5.23;3.40;;;-0.10;99.90;;;;;;5016284;28;20089;-86
2023/01/08 05:14:42;;;;;;;6.20;3.60;;;-0.20;99.90;;;;;;5016269;28;20137;-85
2023/01/08 05:17:08;;;;;;;4.73;3.73;;;-0.20;99.90;;;;;;5016178;28;20415;-86
2023/01/08 05:19:33;;;;;;;5.13;3.33;;;-0.20;99.90;;;;;;5016158;28;20466;-86
2023/01/08 05:21:59;;;;;;;4.67;3.30;;;-0.20;99.90;;;;;;5016133;28;20486;-86
2023/01/08 05:24:24;;;;;;;6.43;3.03;;;-0.20;99.90;;;;;;5016040;28;20040;-85
2023/01/08 05:26:50;;;;;;;5.30;3.23;;;-0.20;99.90;;;;;;5014287;28;20402;-85
2023/01/08 05:29:15;;;;;;;5.17;3.27;;;-0.20;99.90;;;;;;4998270;28;20445;-84
2023/01/08 05:31:41;;;;;;;5.23;2.93;;;-0.20;99.90;;;;;;5016004;28;20425;-85
2023/01/08 05:34:06;;;;;;;6.40;3.57;;;-0.20;99.90;;;;;;5016189;28;20113;-84
2023/01/08 05:36:32;;;;;;;4.83;3.30;;;-0.20;99.90;;;;;;4998267;28;20446;-84
2023/01/08 05:38:57;;;;;;;5.63;3.67;;;-0.20;99.90;;;;;;5016301;28;20474;-84
2023/01/08 05:41:23;;;;;;;5.50;3.80;;;-0.20;99.90;;;;;;5016029;28;20032;-84
2023/01/08 05:43:49;;;;;;;4.63;3.17;;;-0.20;99.90;;;;;;5023177;28;20025;-87
2023/01/08 05:46:14;;;;;;;5.97;3.53;;;-0.20;99.90;;;;;;5035961;28;20026;-88
2023/01/08 05:48:42;;;;;;;4.77;3.20;;;-0.20;99.90;;;;;;5019517;28;20056;-88
2023/01/08 05:51:07;;;;;;;5.60;3.30;;;-0.30;99.90;;;;;;5020067;28;20025;-87
2023/01/08 05:53:33;;;;;;;4.87;3.33;;;-0.20;99.90;;;;;;5035166;28;20026;-89
2023/01/08 05:56:00;;;;;;;6.17;3.50;;;-0.30;99.90;;;;;;5035575;28;20026;-88
2023/01/08 05:58:26;;;;;;;5.43;3.13;;;-0.20;99.90;;;;;;5033166;28;20041;-88
2023/01/08 06:00:51;;;;;;;6.07;3.93;;;-0.20;99.90;;;;;;5018145;28;20029;-87
2023/01/08 06:03:22;;;;;;;6.90;4.07;;;-0.30;99.90;;;;;;5034433;28;20105;-88
2023/01/08 06:05:50;;;;;;;6.13;3.63;;;-0.30;99.90;;;;;;5017833;28;20013;-89
2023/01/08 06:08:15;;;;;;;6.23;4.00;;;-0.30;99.90;;;;;;5032141;28;20076;-88
2023/01/08 06:10:41;;;;;;;6.70;3.87;;;-0.30;99.90;;;;;;5019976;28;20030;-84
2023/01/08 06:13:08;;;;;;;5.77;4.13;;;-0.20;99.90;;;;;;5016707;28;20406;-83
2023/01/08 06:15:33;;;;;;;6.00;3.77;;;-0.20;99.90;;;;;;5013157;28;20428;-83
2023/01/08 06:18:02;;;;;;;5.53;3.70;;;-0.20;99.90;;;;;;5013864;28;20057;-83
2023/01/08 06:20:28;;;;;;;6.27;4.17;;;-0.20;99.90;;;;;;5014664;28;20510;-83
2023/01/08 06:22:53;;;;;;;8.47;3.63;;;-0.10;99.90;;;;;;5015843;28;20053;-83
2023/01/08 06:25:19;;;;;;;6.00;4.00;;;-0.10;99.90;;;;;;4993127;28;20034;-83
2023/01/08 06:27:52;;;;;;;8.60;3.77;;;0.00;99.90;;;;;;4996910;28;20022;-83
2023/01/08 06:30:18;;;;;;;5.27;3.37;;;0.00;99.90;;;;;;4994420;28;20021;-83
2023/01/08 06:32:43;;;;;;;5.83;3.60;;;0.00;99.90;;;;;;5014184;28;20033;-83
2023/01/08 06:35:09;;;;;;;5.33;3.57;;;0.10;99.90;;;;;;5014076;28;20022;-83
2023/01/08 06:37:34;;;;;;;6.17;3.73;;;0.10;99.90;;;;;;5014261;28;20030;-83
2023/01/08 06:40:00;;;;;;;7.00;4.00;;;0.20;99.90;;;;;;5013456;28;20104;-83
2023/01/08 06:42:26;;;;;;;7.30;4.10;;;0.20;99.90;;;;;;5017915;28;20390;-83
2023/01/08 06:44:51;;;;;;;8.20;4.20;;;0.20;99.90;;;;;;5013909;28;20088;-87
2023/01/08 06:47:17;;;;;;;7.20;4.13;;;0.20;99.90;;;;;;5011808;28;20026;-87
2023/01/08 06:49:42;;;;;;;5.57;3.70;;;0.20;99.90;;;;;;5011161;28;20105;-87
2023/01/08 06:52:08;;;;;;;7.90;4.37;;;0.30;99.90;;;;;;5014103;28;20395;-87
2023/01/08 06:54:33;;;;;;;5.57;4.03;;;0.30;99.90;;;;;;4996540;28;20152;-87
2023/01/08 06:56:59;;;;;;;6.83;3.60;;;0.40;99.90;;;;;;5014026;28;20030;-86
2023/01/08 06:59:24;;;;;;;5.90;3.20;;;0.40;99.90;;;;;;4993877;28;20029;-87
2023/01/08 07:01:50;;;;;;;6.67;4.00;;;0.40;99.90;;;;;;5012428;28;20047;-87
2023/01/08 07:04:16;;;;;;;6.13;3.77;;;0.50;99.90;;;;;;5009925;28;20101;-87
2023/01/08 07:06:42;;;;;;;5.50;3.30;;;0.60;99.90;;;;;;5009072;28;20390;-87
2023/01/08 07:09:11;;;;;;;7.13;3.13;;;0.60;99.90;;;;;;5008059;28;20057;-87
2023/01/08 07:11:37;;;;;;;6.03;3.83;;;0.60;99.90;;;;;;5010451;28;20030;-86
2023/01/08 07:14:03;;;;;;;5.07;3.00;;;0.70;99.90;;;;;;4997171;28;20071;-86
2023/01/08 07:16:31;;;;;;;5.10;3.27;;;0.70;99.90;;;;;;5010211;28;20096;-86
2023/01/08 07:18:57;;;;;;;6.93;3.60;;;0.70;99.90;;;;;;5010563;28;20041;-86
2023/01/08 07:21:22;;;;;;;5.30;3.27;;;0.80;99.90;;;;;;5011211;28;20104;-86
2023/01/08 07:23:49;;;;;;;5.13;3.07;;;0.80;99.90;;;;;;5013840;28;20030;-94
2023/01/08 07:26:14;;;;;;;4.57;2.90;;;0.80;99.90;;;;;;5007176;28;20030;-84
2023/01/08 07:28:41;;;;;;;6.73;3.73;;;0.90;99.90;;;;;;5004419;28;20104;-85
2023/01/08 07:31:06;;;;;;;5.53;2.97;;;0.90;99.90;;;;;;5008585;28;20026;-86
2023/01/08 07:33:33;;;;;;;5.43;3.30;;;1.00;99.90;;;;;;4993507;28;20026;-84
2023/01/08 07:35:58;;;;;;;6.30;2.67;;;1.00;99.90;;;;;;5007488;28;20113;-80
2023/01/08 07:38:24;;;;;;;4.17;2.77;;;1.10;99.90;;;;;;5008432;28;20101;-83
2023/01/08 07:40:49;;;;;;;4.33;2.53;;;1.10;99.90;;;;;;4993679;28;20022;-83
2023/01/08 07:43:15;;;;;;;3.80;2.53;;;1.20;99.90;;;;;;5012229;28;20033;-83
2023/01/08 07:45:41;;;;;;;4.80;2.97;;;1.20;99.90;;;;;;4993043;28;20026;-83
2023/01/08 07:48:09;;;;;;;5.23;3.07;;;1.20;99.90;;;;;;5011245;28;20069;-82
2023/01/08 07:50:36;;;;;;;8.80;4.30;;;1.20;99.90;;;;;;5012093;28;20478;-84
2023/01/08 07:53:02;;;;;;;5.20;3.30;;;1.20;99.90;;;;;;5013363;28;20022;-84
2023/01/08 07:55:29;;;;;;;5.27;2.70;;;1.30;99.90;;;;;;5012605;28;20088;-77
2023/01/08 07:57:55;;;;;;;5.13;2.70;;;1.30;99.90;;;;;;5013499;28;20032;-83
2023/01/08 08:00:21;;;;;;;5.27;2.70;;;1.30;99.90;;;;;;4994941;28;20029;-75
2023/01/08 08:02:46;;;;;;;5.37;3.87;;;1.40;99.90;;;;;;5012994;28;20022;-84
2023/01/08 08:05:12;;;;;;;6.03;3.43;;;1.40;99.90;;;;;;5013065;28;20025;-84
2023/01/08 08:07:38;;;;;;;5.40;3.20;;;1.40;99.90;;;;;;5013684;28;20036;-84
2023/01/08 08:10:04;;;;;;;5.67;3.83;;;1.40;99.90;;;;;;4992175;28;20034;-85
2023/01/08 08:12:30;;;;;;;9.07;4.93;;;1.40;99.90;;;;;;5012812;28;20037;-87
2023/01/08 08:14:55;;;;;;;11.63;6.83;;;1.40;99.90;;;;;;4994753;28;20046;-84
2023/01/08 08:17:25;;;;;;;11.60;6.63;;;1.40;99.90;;;;;;5011086;28;20033;-90
2023/01/08 08:19:51;;;;;;;8.80;5.77;;;1.50;99.90;;;;;;4994400;28;20030;-80
2023/01/08 08:22:16;;;;;;;7.90;4.60;;;1.50;99.90;;;;;;4996213;28;20037;-81
2023/01/08 08:24:42;;;;;;;9.23;4.30;;;1.60;99.90;;;;;;5017279;28;20061;-80
2023/01/08 08:27:07;;;;;;;6.63;3.57;;;1.70;99.90;;;;;;5007018;28;20033;-81
2023/01/08 08:29:33;;;;;;;6.10;3.40;;;1.70;99.90;;;;;;5016894;28;20033;-81
2023/01/08 08:31:58;;;;;;;5.80;3.40;;;1.80;99.90;;;;;;5016730;28;20029;-78
2023/01/08 08:34:24;;;;;;;5.27;3.30;;;1.90;99.90;;;;;;5014792;28;20047;-77
2023/01/08 08:36:50;;;;;;;4.83;3.13;;;2.00;99.90;;;;;;5010955;28;20029;-80
2023/01/08 08:39:15;;;;;;;4.93;3.17;;;2.00;99.90;;;;;;5014568;28;20120;-88
2023/01/08 08:41:41;;;;;;;4.20;2.50;;;2.10;99.90;;;;;;5011095;28;20072;-88
2023/01/08 08:44:07;;;;;;;6.07;3.27;;;2.20;99.90;;;;;;4998640;28;20149;-88
2023/01/08 08:46:33;;;;;;;5.57;3.33;;;2.30;99.90;;;;;;4991925;28;20037;-81
2023/01/08 08:48:59;;;;;;;5.03;2.90;;;2.30;99.90;;;;;;5008748;28;20030;-88
2023/01/08 08:51:24;;;;;;;6.80;3.30;;;2.40;99.90;;;;;;4990686;28;20020;-88
2023/01/08 08:53:50;;;;;;;6.40;3.93;;;2.50;99.90;;;;;;5020936;28;20041;-92
2023/01/08 08:56:15;;;;;;;5.63;3.30;;;2.50;99.90;;;;;;5015924;28;20053;-88
2023/01/08 08:58:44;;;;;;;5.60;3.27;;;2.60;99.90;;;;;;5015637;28;20091;-87
2023/01/08 09:01:10;;;;;;;7.87;3.37;;;2.60;99.90;;;;;;5015457;28;20067;-85
2023/01/08 09:03:35;;;;;;;6.57;3.73;;;2.70;99.90;;;;;;5019050;28;20045;-90
2023/01/08 09:06:01;;;;;;;6.93;4.53;;;2.80;99.90;;;;;;5016659;28;20026;-90
2023/01/08 09:08:26;;;;;;;9.03;5.27;;;2.80;99.90;;;;;;5021061;28;20018;-90
2023/01/08 09:10:52;;;;;;;10.30;4.80;;;2.90;99.90;;;;;;5012181;28;20029;-89
2023/01/08 09:13:18;;;;;;;9.03;5.00;;;3.00;99.90;;;;;;5016305;28;20026;-87
2023/01/08 09:15:43;;;;;;;7.00;4.37;;;3.10;99.90;;;;;;5015944;28;20022;-90
2023/01/08 09:18:09;;;;;;;7.60;4.20;;;3.10;99.90;;;;;;5016377;28;20022;-90
2023/01/08 09:20:35;;;;;;;7.27;4.00;;;3.20;99.90;;;;;;5016535;28;20032;-90
2023/01/08 09:23:02;;;;;;;7.87;4.00;;;3.30;99.90;;;;;;5011969;28;20022;-90
2023/01/08 09:25:28;;;;;;;6.60;3.80;;;3.30;99.90;;;;;;4979881;28;20022;-90
2023/01/08 09:28:00;;;;;;;6.63;4.17;;;3.40;99.90;;;;;;5005336;28;20041;-88
2023/01/08 09:30:26;;;;;;;6.70;3.97;;;3.40;99.90;;;;;;5010394;28;20032;-88
2023/01/08 09:32:56;;;;;;;5.37;3.23;;;3.50;99.90;;;;;;5005184;28;20026;-88
2023/01/08 09:35:21;;;;;;;5.23;3.07;;;3.60;99.90;;;;;;5006413;28;20029;-89
2023/01/08 09:37:51;;;;;;;6.80;3.43;;;3.60;99.90;;;;;;4994149;28;21344;-89
2023/01/08 09:40:17;;;;;;;5.50;3.17;;;3.70;99.90;;;;;;5012906;28;20083;-89
2023/01/08 09:42:49;;;;;;;6.27;3.57;;;3.80;99.90;;;;;;5007712;28;20345;-89
2023/01/08 09:45:25;;;;;;;5.83;4.07;;;3.90;99.90;;;;;;5009272;28;20053;-89
2023/01/08 09:47:51;;;;;;;7.97;4.70;;;4.10;99.90;;;;;;5011577;28;20103;-88
2023/01/08 09:50:26;;;;;;;7.93;4.70;;;4.20;99.90;;;;;;5020115;28;20053;-87
2023/01/08 09:53:23;;;;;;;8.65;5.47;;;4.30;99.90;;;;;;4999623;28;20105;-80
2023/01/08 09:56:32;;;;;;;13.80;8.53;;;4.50;99.90;;;;;;4991145;28;20068;-92
2023/01/08 09:59:02;;;;;;;9.80;6.43;;;4.80;99.90;;;;;;4934270;28;20034;-86
2023/01/08 10:02:22;;;;;;;8.23;5.20;;;5.00;99.90;;;;;;4983772;28;20497;-86
2023/01/08 10:05:14;;;;;;;7.57;4.80;;;5.20;99.90;;;;;;5002427;28;20034;-82
2023/01/08 10:07:46;;;;;;;8.03;4.80;;;5.50;99.90;;;;;;4990490;28;20030;-88
2023/01/08 10:10:46;;;;;;;6.93;3.50;;;5.60;99.90;;;;;;4988768;28;20021;-87
2023/01/08 10:13:15;;;;;;;10.57;5.57;;;5.80;99.90;;;;;;4994156;28;20061;-84
2023/01/08 10:16:04;;;;;;;9.73;6.27;;;5.90;99.90;;;;;;5010419;28;20050;-88
2023/01/08 10:18:46;;;;;;;8.00;4.80;;;6.10;99.90;;;;;;4992661;28;20033;-82
2023/01/08 10:21:19;;;;;;;8.07;4.83;;;6.30;99.90;;;;;;4988532;28;20030;-86
2023/01/08 10:23:54;;;;;;;5.07;3.07;;;6.50;99.90;;;;;;4989806;28;20035;-86
2023/01/08 10:26:38;;;;;;;;;;;6.70;99.90;;;;;;4986720;28;20027;-86
2023/01/08 10:29:10;;;;;;;5.50;3.50;;;6.90;99.90;;;;;;4997901;28;19913;-87
2023/01/08 10:31:57;;;;;;;3.50;2.20;;;7.10;99.90;;;;;;4999756;28;20040;-87
2023/01/08 10:38:03;;;;;;;4.53;2.57;;;7.60;99.90;;;;;;5009407;28;20065;-82
2023/01/08 10:40:46;;;;;;;5.17;2.90;;;7.80;99.90;;;;;;5009199;28;20450;-90
2023/01/08 10:43:36;;;;;;;6.37;2.80;;;7.90;99.90;;;;;;5011804;28;20422;-91
2023/01/08 10:46:23;;;;;;;4.53;2.80;;;8.00;99.90;;;;;;5010657;28;20403;-83
2023/01/08 10:49:22;;;;;;;4.63;2.70;;;8.10;99.90;;;;;;4990076;28;20033;-91
2023/01/08 10:52:22;;;;;;;4.17;2.13;;;8.10;99.90;;;;;;5004916;28;20036;-91
2023/01/08 10:54:55;;;;;;;4.73;2.30;;;8.00;99.90;;;;;;4994706;28;20105;-90
2023/01/08 10:57:34;;;;;;;4.57;2.57;;;7.80;99.90;;;;;;4989252;28;20049;-91
2023/01/08 11:00:03;;;;;;;5.17;2.43;;;7.70;99.90;;;;;;4981955;28;20072;-83
2023/01/08 11:02:43;;;;;;;4.87;2.30;;;7.60;99.90;;;;;;5004782;28;20030;-83
2023/01/08 11:05:12;;;;;;;5.67;2.30;;;7.50;99.90;;;;;;4993454;28;20026;-89
2023/01/08 11:07:53;;;;;;;4.67;2.33;;;7.40;99.90;;;;;;4995719;28;20139;-89
2023/01/08 11:10:23;;;;;;;3.17;2.27;;;7.40;99.90;;;;;;4985640;28;20053;-89
2023/01/08 11:12:58;;;;;;;3.93;2.57;;;7.30;99.90;;;;;;5008509;28;20140;-89
2023/01/08 11:15:33;;;;;;;3.53;2.03;;;7.30;99.90;;;;;;4989584;28;20152;-87
2023/01/08 11:18:21;;;;;;;4.00;2.20;;;7.30;99.90;;;;;;5007115;28;20862;-87
2023/01/08 11:21:05;;;;;;;5.30;2.13;;;7.30;99.90;;;;;;4999061;28;20494;-89
2023/01/08 11:23:44;;;;;;;3.30;1.70;;;7.30;99.90;;;;;;5002601;28;20105;-86
2023/01/08 11:26:23;;;;;;;3.47;2.13;;;7.40;99.90;;;;;;4987860;28;20036;-85
2023/01/08 11:29:24;;;;;;;;;;;;;;;;;;;;;
2023/01/08 11:32:46;;;;;;;6.00;1.83;;;7.50;99.90;;;;;;5011386;28;20044;-89
2023/01/08 11:36:01;;;;;;;5.43;2.20;;;7.50;99.90;;;;;;4997392;28;20036;-90
2023/01/08 11:38:34;;;;;;;4.60;2.10;;;7.50;99.90;;;;;;5003710;28;20022;-85
2023/01/08 11:41:33;;;;;;;3.90;1.83;;;7.60;99.90;;;;;;5006138;28;20022;-82
2023/01/08 11:44:33;;;;;;;4.17;2.17;;;7.60;99.90;;;;;;4992404;28;20429;-82
2023/01/08 11:47:40;;;;;;;2.87;1.60;;;7.70;99.90;;;;;;5001528;28;20026;-84
2023/01/08 11:50:33;;;;;;;2.23;1.60;;;7.80;99.90;;;;;;4980593;28;20049;-82
2023/01/08 11:53:29;;;;;;;3.30;1.70;;;7.90;99.90;;;;;;5007444;28;20018;-81
2023/01/08 11:56:04;;;;;;;2.70;1.80;;;7.90;99.90;;;;;;4993475;28;20057;-83
2023/01/08 11:58:46;;;;;;;4.17;2.20;;;7.90;99.90;;;;;;5006855;28;20418;-83
2023/01/08 12:01:41;;;;;;;3.97;2.20;;;8.00;99.90;;;;;;4991830;28;20022;-82
2023/01/08 12:04:45;;;;;;;4.55;2.63;;;7.90;99.90;;;;;;4987891;28;20041;-82
2023/01/08 12:07:24;;;;;;;3.60;2.53;;;7.90;99.90;;;;;;4996297;28;20036;-82
2023/01/08 12:10:33;;;;;;;4.90;2.77;;;7.90;99.90;;;;;;4984570;28;20112;-80
2023/01/08 12:13:05;;;;;;;3.70;2.10;;;7.90;99.90;;;;;;4947197;28;20740;-85
2023/01/08 12:15:54;;;;;;;5.80;2.40;;;7.90;99.90;;;;;;5008389;28;20050;-91
2023/01/08 12:18:51;;;;;;;4.07;2.20;;;7.90;99.90;;;;;;5008668;28;20129;-85
2023/01/08 12:21:23;;;;;;;4.77;2.50;;;8.00;99.90;;;;;;4989771;28;20359;-86
2023/01/08 12:23:52;;;;;;;4.20;2.60;;;8.00;99.90;;;;;;4989367;28;20035;-88
2023/01/08 12:27:05;;;;;;;4.73;2.30;;;8.00;99.90;;;;;;4995593;28;20036;-87
2023/01/08 12:29:45;;;;;;;3.47;2.10;;;8.00;99.90;;;;;;4996636;28;20049;-84
2023/01/08 12:32:57;;;;;;;6.13;3.40;;;8.00;99.90;;;;;;4988656;28;20049;-82
2023/01/08 12:35:37;;;;;;;4.83;3.40;;;8.00;99.90;;;;;;4948206;28;20705;-84
2023/01/08 12:38:05;;;;;;;6.63;3.97;;;8.00;99.90;;;;;;4999841;28;20069;-82
2023/01/08 12:40:44;;;;;;;6.27;4.67;;;8.00;99.90;;;;;;5005591;28;20045;-85
2023/01/08 12:43:25;;;;;;;8.20;5.80;;;8.00;99.90;;;;;;4980053;28;20042;-85
2023/01/08 12:46:00;;;;;;;5.00;3.50;;;8.00;99.90;;;;;;4990653;28;20126;-85
2023/01/08 12:48:45;;;;;;;4.20;2.40;;;8.00;99.90;;;;;;4992311;28;20041;-83
2023/01/08 12:51:56;;;;;;;4.82;2.55;;;7.90;99.90;;;;;;5008610;28;20489;-86
2023/01/08 12:54:32;;;;;;;4.53;2.43;;;7.90;99.90;;;;;;4982678;28;20038;-84
2023/01/08 12:57:24;;;;;;;3.57;2.43;;;7.90;99.90;;;;;;4989445;28;20064;-85
2023/01/08 13:00:45;;;;;;;4.33;2.40;;;7.90;99.90;;;;;;4989557;28;20084;-82
2023/01/08 13:03:47;;;;;;;;;;;;;;;;;;;;;
2023/01/08 13:06:33;;;;;;;5.40;2.70;;;7.80;99.90;;;;;;4926966;29;20038;-81
2023/01/08 13:09:05;;;;;;;7.70;3.53;;;7.70;99.90;;;;;;4927227;29;20477;-85
2023/01/08 13:11:58;;;;;;;4.07;2.80;;;7.70;99.90;;;;;;4914096;29;20036;-85
2023/01/08 13:14:46;;;;;;;10.97;2.60;;;7.70;99.90;;;;;;4928264;29;20039;-86
2023/01/08 13:17:30;;;;;;;4.83;3.00;;;7.60;99.90;;;;;;4930011;28;20129;-82
2023/01/08 13:20:36;;;;;;;8.63;4.70;;;7.60;99.90;;;;;;5007023;28;20041;-82
2023/01/08 13:23:15;;;;;;;12.05;6.03;;;7.60;99.90;;;;;;4958887;28;20418;-85
2023/01/08 13:26:30;;;;;;;13.90;5.90;;;7.50;99.90;;;;;;4974898;28;20542;-85
2023/01/08 13:33:05;;;;;;;10.63;5.33;;;7.50;99.90;;;;;;4938462;28;20174;-84